createdAt,value
2022-12-04T00:00:33.058Z,9.463052
2022-12-04T00:01:33.034Z,9.463054
2022-12-04T00:02:33.098Z,9.463023
2022-12-04T00:03:33.004Z,9.463039
2022-12-04T00:04:33.046Z,9.463044
2022-12-04T00:05:32.993Z,9.463044
2022-12-04T00:06:32.985Z,9.463056
2022-12-04T00:07:33.029Z,9.463059
2022-12-04T00:08:32.965Z,9.463042
2022-12-04T00:09:32.962Z,9.463039
2022-12-04T00:10:33.052Z,9.463038
2022-12-04T00:11:32.949Z,9.463056
2022-12-04T00:12:33.008Z,9.463062
2022-12-04T00:13:32.949Z,9.463043
2022-12-04T00:14:32.954Z,9.463078
2022-12-04T00:15:32.927Z,9.463044
2022-12-04T00:16:33.063Z,9.463063
2022-12-04T00:17:32.988Z,9.463071
2022-12-04T00:18:32.887Z,9.463012
2022-12-04T00:19:32.886Z,9.462983
2022-12-04T00:20:32.867Z,9.462973
2022-12-04T00:21:32.875Z,9.462984
2022-12-04T00:22:32.876Z,9.463033
2022-12-04T00:23:32.900Z,9.463069
2022-12-04T00:24:32.850Z,9.463127
2022-12-04T00:25:37.754Z,9.463078
2022-12-04T00:26:33.853Z,9.463066
2022-12-04T00:27:32.858Z,9.463067
2022-12-04T00:28:32.831Z,9.463094
2022-12-04T00:29:32.805Z,9.463047
2022-12-04T00:30:32.829Z,9.463076
2022-12-04T00:31:32.950Z,9.463086
2022-12-04T00:32:32.851Z,9.463023
2022-12-04T00:33:32.785Z,9.462998
2022-12-04T00:34:32.788Z,9.463070
2022-12-04T00:35:32.772Z,9.463050
2022-12-04T00:36:32.795Z,9.463130
2022-12-04T00:37:32.773Z,9.462990
2022-12-04T00:38:32.969Z,9.463071
2022-12-04T00:39:32.765Z,9.463061
2022-12-04T00:40:32.739Z,9.462868
2022-12-04T00:41:32.729Z,9.463000
2022-12-04T00:42:32.712Z,9.463219
2022-12-04T00:43:32.744Z,9.463140
2022-12-04T00:44:32.715Z,9.462804
2022-12-04T00:45:32.811Z,9.462801
2022-12-04T00:46:32.712Z,9.463009
2022-12-04T00:47:32.708Z,9.463040
2022-12-04T00:48:32.697Z,9.463028
2022-12-04T00:49:32.852Z,9.462903
2022-12-04T00:50:32.670Z,9.462799
2022-12-04T00:51:32.690Z,9.462850
2022-12-04T00:52:32.696Z,9.462968
2022-12-04T00:53:32.658Z,9.463035
2022-12-04T00:54:32.667Z,9.462903
2022-12-04T00:55:32.653Z,9.462794
2022-12-04T00:56:32.621Z,9.462749
2022-12-04T00:57:32.618Z,9.462813
2022-12-04T00:58:32.709Z,9.462829
2022-12-04T00:59:32.616Z,9.462782
2022-12-04T01:00:32.709Z,9.462817
2022-12-04T01:01:32.712Z,9.462892
2022-12-04T01:02:32.636Z,9.462881
2022-12-04T01:03:32.839Z,9.462861
2022-12-04T01:04:32.589Z,9.462840
2022-12-04T01:05:32.559Z,9.462882
2022-12-04T01:06:32.568Z,9.463101
2022-12-04T01:07:32.586Z,9.463063
2022-12-04T01:08:32.560Z,9.463171
2022-12-04T01:09:32.540Z,9.462973
2022-12-04T01:10:32.523Z,9.463036
2022-12-04T01:11:32.535Z,9.462890
2022-12-04T01:12:32.510Z,9.462829
2022-12-04T01:13:33.230Z,9.462864
2022-12-04T01:14:32.576Z,9.462973
2022-12-04T01:15:32.622Z,9.462921
2022-12-04T01:16:32.585Z,9.462894
2022-12-04T01:17:32.544Z,9.462781
2022-12-04T01:18:32.476Z,9.462720
2022-12-04T01:19:32.494Z,9.462797
2022-12-04T01:20:32.443Z,9.462813
2022-12-04T01:21:32.489Z,9.462750
2022-12-04T01:22:32.432Z,9.462853
2022-12-04T01:23:32.481Z,9.462835
2022-12-04T01:24:32.437Z,9.462880
2022-12-04T01:25:32.416Z,9.462810
2022-12-04T01:26:32.589Z,9.462933
2022-12-04T01:27:32.437Z,9.462912
2022-12-04T01:28:32.433Z,9.462854
2022-12-04T01:29:32.410Z,9.462889
2022-12-04T01:30:32.403Z,9.462906
2022-12-04T01:31:32.468Z,9.462831
2022-12-04T01:32:32.372Z,9.462775
2022-12-04T01:33:32.389Z,9.462818
2022-12-04T01:34:32.349Z,9.462905
2022-12-04T01:35:32.420Z,9.462917
2022-12-04T01:36:32.366Z,9.462936
2022-12-04T01:37:32.351Z,9.462969
2022-12-04T01:38:32.338Z,9.462925
2022-12-04T01:39:32.326Z,9.462854
2022-12-04T01:40:32.349Z,9.462766
2022-12-04T01:41:32.353Z,9.462708
2022-12-04T01:42:32.357Z,9.462632
2022-12-04T01:43:32.299Z,9.462553
2022-12-04T01:44:32.313Z,9.462695
2022-12-04T01:45:32.325Z,9.462564
2022-12-04T01:46:32.278Z,9.462554
2022-12-04T01:47:32.293Z,9.462908
2022-12-04T01:48:32.306Z,9.463017
2022-12-04T01:49:32.259Z,9.463098
2022-12-04T01:50:32.251Z,9.463167
2022-12-04T01:51:32.270Z,9.463003
2022-12-04T01:52:32.222Z,9.462956
2022-12-04T01:53:32.422Z,9.462782
2022-12-04T01:54:32.225Z,9.462736
2022-12-04T01:55:32.304Z,9.462727
2022-12-04T01:56:32.237Z,9.462805
2022-12-04T01:57:32.198Z,9.462876
2022-12-04T01:58:32.186Z,9.462850
2022-12-04T01:59:32.199Z,9.462939
2022-12-04T02:00:32.301Z,9.462980
2022-12-04T02:01:32.212Z,9.462994
2022-12-04T02:02:32.293Z,9.462941
2022-12-04T02:03:32.271Z,9.462975
2022-12-04T02:04:32.139Z,9.462950
2022-12-04T02:05:32.163Z,9.462895
2022-12-04T02:06:32.699Z,9.462924
2022-12-04T02:07:32.278Z,9.462878
2022-12-04T02:08:32.139Z,9.462902
2022-12-04T02:09:32.115Z,9.462923
2022-12-04T02:10:32.127Z,9.462939
2022-12-04T02:11:32.170Z,9.462941
2022-12-04T02:12:32.107Z,9.462916
2022-12-04T02:13:32.412Z,9.463037
2022-12-04T02:14:32.097Z,9.463136
2022-12-04T02:15:32.096Z,9.463077
2022-12-04T02:16:32.212Z,9.463022
2022-12-04T02:17:32.128Z,9.462992
2022-12-04T02:18:32.088Z,9.463012
2022-12-04T02:19:32.060Z,9.462996
2022-12-04T02:20:32.045Z,9.462993
2022-12-04T02:21:32.024Z,9.462977
2022-12-04T02:22:32.132Z,9.462960
2022-12-04T02:23:32.032Z,9.462984
2022-12-04T02:24:32.022Z,9.462980
2022-12-04T02:25:32.011Z,9.462981
2022-12-04T02:26:32.030Z,9.462968
2022-12-04T02:27:32.086Z,9.462981
2022-12-04T02:28:32.071Z,9.462970
2022-12-04T02:29:32.006Z,9.462927
2022-12-04T02:30:32.061Z,9.462970
2022-12-04T02:31:31.966Z,9.462976
2022-12-04T02:32:32.030Z,9.462970
2022-12-04T02:33:31.931Z,9.462991
2022-12-04T02:34:32.029Z,9.462935
2022-12-04T02:35:31.974Z,9.462911
2022-12-04T02:36:31.942Z,9.462960
2022-12-04T02:37:31.921Z,9.462971
2022-12-04T02:38:31.915Z,9.462948
2022-12-04T02:39:31.948Z,9.462960
2022-12-04T02:40:31.952Z,9.462912
2022-12-04T02:41:31.902Z,9.462979
2022-12-04T02:42:31.898Z,9.463017
2022-12-04T02:43:31.894Z,9.463022
2022-12-04T02:44:31.907Z,9.462932
2022-12-04T02:45:31.933Z,9.462957
2022-12-04T02:46:31.983Z,9.463010
2022-12-04T02:47:31.841Z,9.462996
2022-12-04T02:48:31.869Z,9.463020
2022-12-04T02:49:32.003Z,9.463017
2022-12-04T02:50:33.001Z,9.462957
2022-12-04T02:51:31.838Z,9.462960
2022-12-04T02:52:31.829Z,9.462985
2022-12-04T02:53:31.812Z,9.462933
2022-12-04T02:54:31.815Z,9.462961
2022-12-04T02:55:31.835Z,9.463009
2022-12-04T02:56:31.805Z,9.462964
2022-12-04T02:57:31.787Z,9.462959
2022-12-04T02:58:31.783Z,9.462978
2022-12-04T02:59:31.769Z,9.462993
2022-12-04T03:00:31.779Z,9.463025
2022-12-04T03:01:31.837Z,9.463017
2022-12-04T03:02:31.796Z,9.462996
2022-12-04T03:03:31.753Z,9.462982
2022-12-04T03:04:31.751Z,9.463018
2022-12-04T03:05:31.709Z,9.463000
2022-12-04T03:06:31.912Z,9.463027
2022-12-04T03:07:31.732Z,9.462995
2022-12-04T03:08:31.699Z,9.463017
2022-12-04T03:09:31.698Z,9.463023
2022-12-04T03:10:31.691Z,9.462995
2022-12-04T03:11:31.728Z,9.462985
2022-12-04T03:12:31.861Z,9.462982
2022-12-04T03:13:31.669Z,9.463016
2022-12-04T03:14:31.789Z,9.462975
2022-12-04T03:15:31.665Z,9.463012
2022-12-04T03:16:31.710Z,9.462991
2022-12-04T03:17:31.647Z,9.462981
2022-12-04T03:18:31.673Z,9.463017
2022-12-04T03:19:31.636Z,9.463030
2022-12-04T03:20:31.640Z,9.463020
2022-12-04T03:21:31.605Z,9.462994
2022-12-04T03:22:31.622Z,9.462981
2022-12-04T03:23:31.590Z,9.462973
2022-12-04T03:24:31.597Z,9.462980
2022-12-04T03:25:31.591Z,9.462962
2022-12-04T03:26:31.575Z,9.462913
2022-12-04T03:27:31.616Z,9.462950
2022-12-04T03:28:31.576Z,9.462985
2022-12-04T03:29:32.572Z,9.463011
2022-12-04T03:30:31.611Z,9.463016
2022-12-04T03:31:31.568Z,9.463017
2022-12-04T03:32:31.539Z,9.463023
2022-12-04T03:33:31.538Z,9.463039
2022-12-04T03:34:31.555Z,9.463031
2022-12-04T03:35:31.592Z,9.463068
2022-12-04T03:36:31.524Z,9.463058
2022-12-04T03:37:31.514Z,9.463019
2022-12-04T03:38:31.507Z,9.463059
2022-12-04T03:39:31.491Z,9.462993
2022-12-04T03:40:31.511Z,9.463043
2022-12-04T03:41:31.529Z,9.462967
2022-12-04T03:42:31.504Z,9.462996
2022-12-04T03:43:31.479Z,9.463000
2022-12-04T03:44:31.451Z,9.463055
2022-12-04T03:45:31.456Z,9.463041
2022-12-04T03:46:31.523Z,9.463033
2022-12-04T03:47:31.441Z,9.463020
2022-12-04T03:48:31.439Z,9.463059
2022-12-04T03:49:31.410Z,9.463067
2022-12-04T03:50:31.406Z,9.463066
2022-12-04T03:51:31.412Z,9.463024
2022-12-04T03:52:31.423Z,9.463018
2022-12-04T03:53:31.382Z,9.462973
2022-12-04T03:54:31.438Z,9.462994
2022-12-04T03:55:31.362Z,9.462988
2022-12-04T03:56:31.396Z,9.463029
2022-12-04T03:57:31.384Z,9.463018
2022-12-04T03:58:31.357Z,9.463033
2022-12-04T03:59:31.381Z,9.463070
2022-12-04T04:00:31.348Z,9.462990
2022-12-04T04:01:31.446Z,9.462988
2022-12-04T04:02:31.413Z,9.463038
2022-12-04T04:03:31.308Z,9.463056
2022-12-04T04:04:31.302Z,9.463087
2022-12-04T04:05:31.305Z,9.462994
2022-12-04T04:06:31.305Z,9.463026
2022-12-04T04:07:35.356Z,9.463143
2022-12-04T04:08:31.382Z,9.463109
2022-12-04T04:09:31.282Z,9.463135
2022-12-04T04:10:31.269Z,9.463083
2022-12-04T04:11:31.261Z,9.463071
2022-12-04T04:12:31.267Z,9.463100
2022-12-04T04:13:31.242Z,9.463073
2022-12-04T04:14:31.328Z,9.463006
2022-12-04T04:15:31.312Z,9.463024
2022-12-04T04:16:31.234Z,9.462993
2022-12-04T04:17:36.462Z,9.462947
2022-12-04T04:18:32.348Z,9.462948
2022-12-04T04:19:31.215Z,9.462942
2022-12-04T04:20:31.211Z,9.462931
2022-12-04T04:21:31.239Z,9.462971
2022-12-04T04:22:31.179Z,9.462961
2022-12-04T04:23:31.185Z,9.462969
2022-12-04T04:24:31.181Z,9.462943
2022-12-04T04:25:31.164Z,9.462942
2022-12-04T04:26:31.157Z,9.462979
2022-12-04T04:27:31.162Z,9.462959
2022-12-04T04:28:31.189Z,9.462963
2022-12-04T04:29:31.150Z,9.462950
2022-12-04T04:30:31.130Z,9.462940
2022-12-04T04:31:31.271Z,9.462952
2022-12-04T04:32:31.119Z,9.462970
2022-12-04T04:33:31.108Z,9.462985
2022-12-04T04:34:31.137Z,9.462980
2022-12-04T04:35:31.139Z,9.462988
2022-12-04T04:36:31.085Z,9.462980
2022-12-04T04:37:31.116Z,9.462960
2022-12-04T04:38:31.080Z,9.462923
2022-12-04T04:39:31.143Z,9.462943
2022-12-04T04:40:31.055Z,9.462945
2022-12-04T04:41:31.068Z,9.462957
2022-12-04T04:42:31.083Z,9.462930
2022-12-04T04:43:31.041Z,9.462947
2022-12-04T04:44:31.048Z,9.462922
2022-12-04T04:45:31.047Z,9.463006
2022-12-04T04:46:31.108Z,9.463043
2022-12-04T04:47:31.054Z,9.463023
2022-12-04T04:48:31.009Z,9.462980
2022-12-04T04:49:31.264Z,9.462998
2022-12-04T04:50:30.982Z,9.462913
2022-12-04T04:51:31.003Z,9.462950
2022-12-04T04:52:30.980Z,9.462917
2022-12-04T04:53:31.014Z,9.462938
2022-12-04T04:54:30.955Z,9.463009
2022-12-04T04:55:30.996Z,9.462939
2022-12-04T04:56:30.952Z,9.462982
2022-12-04T04:57:30.950Z,9.462960
2022-12-04T04:58:30.946Z,9.462950
2022-12-04T04:59:30.939Z,9.462940
2022-12-04T05:00:30.925Z,9.462914
2022-12-04T05:01:31.455Z,9.462922
2022-12-04T05:02:30.960Z,9.462926
2022-12-04T05:03:30.923Z,9.462969
2022-12-04T05:04:30.912Z,9.463045
2022-12-04T05:05:30.895Z,9.463065
2022-12-04T05:06:30.911Z,9.463017
2022-12-04T05:07:30.984Z,9.462983
2022-12-04T05:08:30.861Z,9.462943
2022-12-04T05:09:30.878Z,9.462983
2022-12-04T05:10:30.870Z,9.462969
2022-12-04T05:11:30.871Z,9.462990
2022-12-04T05:12:30.872Z,9.462976
2022-12-04T05:13:30.861Z,9.462974
2022-12-04T05:14:30.854Z,9.462987
2022-12-04T05:15:30.825Z,9.463014
2022-12-04T05:16:30.953Z,9.463003
2022-12-04T05:17:30.804Z,9.462994
2022-12-04T05:18:30.814Z,9.463004
2022-12-04T05:19:31.064Z,9.462990
2022-12-04T05:20:30.801Z,9.463039
2022-12-04T05:21:30.821Z,9.463013
2022-12-04T05:22:30.760Z,9.462986
2022-12-04T05:23:30.767Z,9.463000
2022-12-04T05:24:30.771Z,9.462926
2022-12-04T05:25:30.754Z,9.462988
2022-12-04T05:26:30.757Z,9.462981
2022-12-04T05:27:30.753Z,9.463076
2022-12-04T05:28:30.735Z,9.463101
2022-12-04T05:29:35.685Z,9.463072
2022-12-04T05:30:30.735Z,9.462901
2022-12-04T05:31:30.812Z,9.462871
2022-12-04T05:32:30.712Z,9.462820
2022-12-04T05:33:30.704Z,9.462953
2022-12-04T05:34:30.709Z,9.462959
2022-12-04T05:35:30.734Z,9.463000
2022-12-04T05:36:30.672Z,9.462955
2022-12-04T05:37:30.694Z,9.462980
2022-12-04T05:38:30.664Z,9.462975
2022-12-04T05:39:30.670Z,9.462964
2022-12-04T05:40:30.659Z,9.462927
2022-12-04T05:41:30.671Z,9.462934
2022-12-04T05:42:30.632Z,9.462947
2022-12-04T05:43:30.638Z,9.462934
2022-12-04T05:44:30.632Z,9.462977
2022-12-04T05:45:30.674Z,9.462954
2022-12-04T05:46:30.671Z,9.463013
2022-12-04T05:47:30.634Z,9.463031
2022-12-04T05:48:30.587Z,9.463023
2022-12-04T05:49:30.616Z,9.463022
2022-12-04T05:50:30.573Z,9.463070
2022-12-04T05:51:30.611Z,9.463027
2022-12-04T05:52:30.578Z,9.463058
2022-12-04T05:53:30.570Z,9.463046
2022-12-04T05:54:30.591Z,9.463128
2022-12-04T05:55:30.571Z,9.462924
2022-12-04T05:56:30.581Z,9.462954
2022-12-04T05:57:30.533Z,9.463008
2022-12-04T05:58:30.529Z,9.462953
2022-12-04T05:59:30.533Z,9.462834
2022-12-04T06:00:30.501Z,9.463116
2022-12-04T06:01:30.524Z,9.463057
2022-12-04T06:02:30.621Z,9.463081
2022-12-04T06:03:30.518Z,9.463037
2022-12-04T06:04:30.494Z,9.462951
2022-12-04T06:05:30.481Z,9.463115
2022-12-04T06:06:30.497Z,9.462983
2022-12-04T06:07:30.601Z,9.462944
2022-12-04T06:08:30.453Z,9.462901
2022-12-04T06:09:30.468Z,9.462880
2022-12-04T06:10:30.517Z,9.462892
2022-12-04T06:11:30.454Z,9.462888
2022-12-04T06:12:30.434Z,9.462846
2022-12-04T06:13:30.438Z,9.462918
2022-12-04T06:14:34.858Z,9.462951
2022-12-04T06:15:31.407Z,9.462988
2022-12-04T06:16:30.525Z,9.462963
2022-12-04T06:17:30.443Z,9.462990
2022-12-04T06:18:30.386Z,9.462976
2022-12-04T06:19:30.385Z,9.463017
2022-12-04T06:20:30.417Z,9.462992
2022-12-04T06:21:30.377Z,9.462969
2022-12-04T06:22:30.368Z,9.462961
2022-12-04T06:23:30.388Z,9.462954
2022-12-04T06:24:30.376Z,9.463012
2022-12-04T06:25:30.700Z,9.462960
2022-12-04T06:26:30.371Z,9.463022
2022-12-04T06:27:30.376Z,9.463044
2022-12-04T06:28:30.304Z,9.463031
2022-12-04T06:29:30.299Z,9.462978
2022-12-04T06:30:30.321Z,9.462956
2022-12-04T06:31:30.550Z,9.462936
2022-12-04T06:32:30.364Z,9.463001
2022-12-04T06:33:30.308Z,9.463027
2022-12-04T06:34:30.283Z,9.463074
2022-12-04T06:35:30.265Z,9.462951
2022-12-04T06:36:30.318Z,9.462943
2022-12-04T06:37:30.251Z,9.462996
2022-12-04T06:38:30.267Z,9.463014
2022-12-04T06:39:30.306Z,9.463036
2022-12-04T06:40:30.236Z,9.462977
2022-12-04T06:41:30.230Z,9.463083
2022-12-04T06:42:30.234Z,9.463090
2022-12-04T06:43:30.216Z,9.462972
2022-12-04T06:44:30.302Z,9.462921
2022-12-04T06:45:30.222Z,9.462977
2022-12-04T06:46:30.191Z,9.463029
2022-12-04T06:47:30.182Z,9.462978
2022-12-04T06:48:30.214Z,9.462991
2022-12-04T06:49:30.162Z,9.462934
2022-12-04T06:50:30.264Z,9.462982
2022-12-04T06:51:30.178Z,9.463036
2022-12-04T06:52:30.153Z,9.462991
2022-12-04T06:53:30.235Z,9.462964
2022-12-04T06:54:30.144Z,9.462990
2022-12-04T06:55:30.163Z,9.462968
2022-12-04T06:56:30.212Z,9.463070
2022-12-04T06:57:30.105Z,9.463018
2022-12-04T06:58:30.150Z,9.463046
2022-12-04T06:59:30.335Z,9.462937
2022-12-04T07:00:30.120Z,9.463033
2022-12-04T07:01:30.177Z,9.462999
2022-12-04T07:02:30.307Z,9.462797
2022-12-04T07:03:30.090Z,9.462977
2022-12-04T07:04:30.115Z,9.463003
2022-12-04T07:05:30.073Z,9.462994
2022-12-04T07:06:30.090Z,9.463078
2022-12-04T07:07:30.221Z,9.462974
2022-12-04T07:08:30.050Z,9.462948
2022-12-04T07:09:30.047Z,9.463048
2022-12-04T07:10:30.049Z,9.463058
2022-12-04T07:11:30.051Z,9.462873
2022-12-04T07:12:30.007Z,9.462860
2022-12-04T07:13:30.012Z,9.463114
2022-12-04T07:14:30.010Z,9.463214
2022-12-04T07:15:29.999Z,9.463161
2022-12-04T07:16:32.840Z,9.463031
2022-12-04T07:17:31.006Z,9.462974
2022-12-04T07:18:29.987Z,9.463003
2022-12-04T07:19:30.060Z,9.463017
2022-12-04T07:20:29.990Z,9.463094
2022-12-04T07:21:29.978Z,9.462984
2022-12-04T07:22:29.977Z,9.462988
2022-12-04T07:23:29.938Z,9.462968
2022-12-04T07:24:29.962Z,9.462941
2022-12-04T07:25:30.002Z,9.463040
2022-12-04T07:26:29.923Z,9.463052
2022-12-04T07:27:29.952Z,9.463092
2022-12-04T07:28:29.923Z,9.462972
2022-12-04T07:29:29.914Z,9.462995
2022-12-04T07:30:30.035Z,9.463017
2022-12-04T07:31:30.082Z,9.463000
2022-12-04T07:32:29.875Z,9.462996
2022-12-04T07:33:29.866Z,9.462978
2022-12-04T07:34:29.857Z,9.462913
2022-12-04T07:35:29.879Z,9.462963
2022-12-04T07:36:29.860Z,9.463041
2022-12-04T07:37:29.943Z,9.463105
2022-12-04T07:38:29.881Z,9.462997
2022-12-04T07:39:29.828Z,9.462997
2022-12-04T07:40:29.968Z,9.463068
2022-12-04T07:41:29.827Z,9.462995
2022-12-04T07:42:29.952Z,9.463010
2022-12-04T07:43:29.849Z,9.462968
2022-12-04T07:44:29.787Z,9.462955
2022-12-04T07:45:29.842Z,9.462969
2022-12-04T07:46:29.868Z,9.462980
2022-12-04T07:47:29.785Z,9.462992
2022-12-04T07:48:33.364Z,9.462961
2022-12-04T07:49:29.785Z,9.463017
2022-12-04T07:50:29.822Z,9.463039
2022-12-04T07:51:29.846Z,9.462995
2022-12-04T07:52:29.823Z,9.462989
2022-12-04T07:53:29.753Z,9.462995
2022-12-04T07:54:29.790Z,9.462977
2022-12-04T07:55:29.774Z,9.462976
2022-12-04T07:56:29.722Z,9.462996
2022-12-04T07:57:29.738Z,9.463011
2022-12-04T07:58:29.693Z,9.462978
2022-12-04T07:59:29.711Z,9.463016
2022-12-04T08:00:30.263Z,9.463007
2022-12-04T08:01:29.773Z,9.463004
2022-12-04T08:02:29.731Z,9.463030
2022-12-04T08:03:29.695Z,9.463017
2022-12-04T08:04:29.779Z,9.463022
2022-12-04T08:05:29.675Z,9.463029
2022-12-04T08:06:29.706Z,9.463026
2022-12-04T08:07:29.708Z,9.463001
2022-12-04T08:08:29.708Z,9.462986
2022-12-04T08:09:29.753Z,9.462973
2022-12-04T08:10:29.772Z,9.463025
2022-12-04T08:11:29.616Z,9.463001
2022-12-04T08:12:29.663Z,9.462973
2022-12-04T08:13:29.591Z,9.462979
2022-12-04T08:14:29.665Z,9.462989
2022-12-04T08:15:29.756Z,9.462992
2022-12-04T08:16:29.718Z,9.463017
2022-12-04T08:17:29.750Z,9.463036
2022-12-04T08:18:29.606Z,9.463037
2022-12-04T08:19:29.627Z,9.463045
2022-12-04T08:20:29.891Z,9.462997
2022-12-04T08:21:29.647Z,9.463008
2022-12-04T08:22:29.721Z,9.462966
2022-12-04T08:23:29.551Z,9.463037
2022-12-04T08:24:29.648Z,9.463051
2022-12-04T08:25:29.567Z,9.463047
2022-12-04T08:26:29.499Z,9.463036
2022-12-04T08:27:29.508Z,9.462985
2022-12-04T08:28:29.477Z,9.462976
2022-12-04T08:29:29.608Z,9.462984
2022-12-04T08:30:29.614Z,9.463019
2022-12-04T08:31:29.574Z,9.463018
2022-12-04T08:32:29.466Z,9.463003
2022-12-04T08:33:29.451Z,9.462982
2022-12-04T08:34:29.437Z,9.463013
2022-12-04T08:35:29.544Z,9.463050
2022-12-04T08:36:29.430Z,9.463046
2022-12-04T08:37:29.464Z,9.463008
2022-12-04T08:38:29.540Z,9.463023
2022-12-04T08:39:29.411Z,9.463012
2022-12-04T08:40:29.437Z,9.462990
2022-12-04T08:41:29.400Z,9.462981
2022-12-04T08:42:29.445Z,9.462951
2022-12-04T08:43:29.437Z,9.462892
2022-12-04T08:44:29.372Z,9.462950
2022-12-04T08:45:29.390Z,9.462905
2022-12-04T08:46:29.564Z,9.462990
2022-12-04T08:47:29.389Z,9.462944
2022-12-04T08:48:29.368Z,9.462928
2022-12-04T08:49:29.526Z,9.462976
2022-12-04T08:50:29.350Z,9.462899
2022-12-04T08:51:29.352Z,9.462865
2022-12-04T08:52:29.340Z,9.463095
2022-12-04T08:53:29.329Z,9.463168
2022-12-04T08:54:34.474Z,9.463086
2022-12-04T08:55:29.343Z,9.462912
2022-12-04T08:56:29.305Z,9.462811
2022-12-04T08:57:29.327Z,9.462846
2022-12-04T08:58:29.330Z,9.462892
2022-12-04T08:59:29.312Z,9.462947
2022-12-04T09:00:29.290Z,9.462925
2022-12-04T09:01:29.315Z,9.462934
2022-12-04T09:02:29.258Z,9.462925
2022-12-04T09:03:31.047Z,9.462893
2022-12-04T09:04:29.316Z,9.462876
2022-12-04T09:05:29.271Z,9.462876
2022-12-04T09:06:29.286Z,9.462874
2022-12-04T09:07:29.325Z,9.462853
2022-12-04T09:08:29.240Z,9.462816
2022-12-04T09:09:29.245Z,9.462925
2022-12-04T09:10:29.223Z,9.462949
2022-12-04T09:11:29.222Z,9.462830
2022-12-04T09:12:29.216Z,9.462881
2022-12-04T09:13:29.201Z,9.462904
2022-12-04T09:14:29.208Z,9.462966
2022-12-04T09:15:29.228Z,9.462939
2022-12-04T09:16:29.303Z,9.462869
2022-12-04T09:17:29.199Z,9.462968
2022-12-04T09:18:29.173Z,9.462946
2022-12-04T09:19:29.183Z,9.462853
2022-12-04T09:20:29.174Z,9.462961
2022-12-04T09:21:29.157Z,9.462840
2022-12-04T09:22:45.574Z,9.462977
2022-12-04T09:23:30.155Z,9.463055
2022-12-04T09:24:29.129Z,9.462859
2022-12-04T09:25:29.146Z,9.462839
2022-12-04T09:26:29.129Z,9.462848
2022-12-04T09:27:29.116Z,9.462817
2022-12-04T09:28:29.095Z,9.462813
2022-12-04T09:29:29.126Z,9.462867
2022-12-04T09:30:29.253Z,9.462885
2022-12-04T09:31:29.252Z,9.462930
2022-12-04T09:32:29.073Z,9.462970
2022-12-04T09:33:29.064Z,9.462935
2022-12-04T09:34:29.047Z,9.462926
2022-12-04T09:35:29.094Z,9.462885
2022-12-04T09:36:29.107Z,9.462929
2022-12-04T09:37:29.081Z,9.462930
2022-12-04T09:38:29.035Z,9.462895
2022-12-04T09:39:29.149Z,9.462955
2022-12-04T09:40:36.792Z,9.462995
2022-12-04T09:41:30.022Z,9.462864
2022-12-04T09:42:29.029Z,9.462898
2022-12-04T09:43:29.018Z,9.462929
2022-12-04T09:44:29.123Z,9.462881
2022-12-04T09:45:29.010Z,9.462923
2022-12-04T09:46:29.124Z,9.462966
2022-12-04T09:47:28.967Z,9.462890
2022-12-04T09:48:28.984Z,9.462899
2022-12-04T09:49:28.967Z,9.462905
2022-12-04T09:50:28.993Z,9.462887
2022-12-04T09:51:29.006Z,9.462935
2022-12-04T09:52:28.929Z,9.462935
2022-12-04T09:53:28.996Z,9.462904
2022-12-04T09:54:28.923Z,9.462882
2022-12-04T09:55:28.915Z,9.462881
2022-12-04T09:56:28.917Z,9.462932
2022-12-04T09:57:28.917Z,9.462914
2022-12-04T09:58:28.899Z,9.462832
2022-12-04T09:59:28.886Z,9.462785
2022-12-04T10:00:28.888Z,9.462771
2022-12-04T10:01:28.888Z,9.462864
2022-12-04T10:02:29.044Z,9.462900
2022-12-04T10:03:29.011Z,9.462841
2022-12-04T10:04:28.853Z,9.462954
2022-12-04T10:05:28.865Z,9.462978
2022-12-04T10:06:29.292Z,9.463058
2022-12-04T10:07:29.015Z,9.463055
2022-12-04T10:08:28.844Z,9.462964
2022-12-04T10:09:28.833Z,9.462973
2022-12-04T10:10:28.822Z,9.463149
2022-12-04T10:11:32.574Z,9.463073
2022-12-04T10:12:28.807Z,9.463059
2022-12-04T10:13:28.810Z,9.463331
2022-12-04T10:14:28.791Z,9.462870
2022-12-04T10:15:28.834Z,9.463061
2022-12-04T10:16:28.915Z,9.463029
2022-12-04T10:17:32.773Z,9.463098
2022-12-04T10:18:28.777Z,9.463110
2022-12-04T10:19:28.791Z,9.463070
2022-12-04T10:20:28.804Z,9.463025
2022-12-04T10:21:28.761Z,9.463014
2022-12-04T10:22:28.763Z,9.463018
2022-12-04T10:23:28.816Z,9.462987
2022-12-04T10:24:28.787Z,9.462987
2022-12-04T10:25:28.749Z,9.463011
2022-12-04T10:26:28.708Z,9.462983
2022-12-04T10:27:28.704Z,9.462977
2022-12-04T10:28:28.775Z,9.463002
2022-12-04T10:29:28.744Z,9.463017
2022-12-04T10:30:28.695Z,9.462996
2022-12-04T10:31:28.762Z,9.463033
2022-12-04T10:32:28.682Z,9.463012
2022-12-04T10:33:28.652Z,9.463010
2022-12-04T10:34:28.682Z,9.463014
2022-12-04T10:35:28.641Z,9.463036
2022-12-04T10:36:28.664Z,9.463038
2022-12-04T10:37:28.687Z,9.462993
2022-12-04T10:38:28.629Z,9.463030
2022-12-04T10:39:28.662Z,9.462902
2022-12-04T10:40:28.671Z,9.462919
2022-12-04T10:41:28.634Z,9.462903
2022-12-04T10:42:28.627Z,9.463038
2022-12-04T10:43:28.701Z,9.462968
2022-12-04T10:44:28.594Z,9.462999
2022-12-04T10:45:29.254Z,9.463043
2022-12-04T10:46:28.641Z,9.463139
2022-12-04T10:47:28.579Z,9.463043
2022-12-04T10:48:28.609Z,9.462998
2022-12-04T10:49:28.576Z,9.463006
2022-12-04T10:50:28.547Z,9.462987
2022-12-04T10:51:28.614Z,9.463004
2022-12-04T10:52:28.574Z,9.463049
2022-12-04T10:53:28.537Z,9.463083
2022-12-04T10:54:28.534Z,9.463086
2022-12-04T10:55:28.553Z,9.463038
2022-12-04T10:56:28.554Z,9.462976
2022-12-04T10:57:28.534Z,9.463058
2022-12-04T10:58:28.508Z,9.463127
2022-12-04T10:59:28.543Z,9.463078
2022-12-04T11:00:28.504Z,9.463017
2022-12-04T11:01:28.630Z,9.463526
2022-12-04T11:02:28.722Z,9.463594
2022-12-04T11:03:28.621Z,9.463299
2022-12-04T11:04:28.456Z,9.463184
2022-12-04T11:05:28.459Z,9.463106
2022-12-04T11:06:28.463Z,9.463087
2022-12-04T11:07:28.547Z,9.463079
2022-12-04T11:08:28.538Z,9.463181
2022-12-04T11:09:28.457Z,9.463152
2022-12-04T11:10:28.423Z,9.463118
2022-12-04T11:11:28.467Z,9.463120
2022-12-04T11:12:28.428Z,9.463111
2022-12-04T11:13:28.415Z,9.462997
2022-12-04T11:14:28.422Z,9.463014
2022-12-04T11:15:28.425Z,9.463095
2022-12-04T11:16:28.488Z,9.463083
2022-12-04T11:17:28.389Z,9.462973
2022-12-04T11:18:28.396Z,9.462955
2022-12-04T11:19:28.370Z,9.463033
2022-12-04T11:20:28.410Z,9.463004
2022-12-04T11:21:28.377Z,9.463084
2022-12-04T11:22:28.381Z,9.463034
2022-12-04T11:23:28.364Z,9.462992
2022-12-04T11:24:28.337Z,9.463005
2022-12-04T11:25:28.366Z,9.463045
2022-12-04T11:26:28.335Z,9.463053
2022-12-04T11:27:28.352Z,9.463037
2022-12-04T11:28:41.245Z,9.462999
2022-12-04T11:29:29.326Z,9.462981
2022-12-04T11:30:28.577Z,9.462990
2022-12-04T11:31:28.349Z,9.462971
2022-12-04T11:32:28.290Z,9.462937
2022-12-04T11:33:28.299Z,9.462978
2022-12-04T11:34:28.268Z,9.463071
2022-12-04T11:35:28.284Z,9.463049
2022-12-04T11:36:28.251Z,9.463065
2022-12-04T11:37:28.316Z,9.462968
2022-12-04T11:38:28.257Z,9.462988
2022-12-04T11:39:28.240Z,9.462947
2022-12-04T11:40:28.387Z,9.462966
2022-12-04T11:41:28.243Z,9.462976
2022-12-04T11:42:28.208Z,9.462986
2022-12-04T11:43:28.254Z,9.462985
2022-12-04T11:44:28.517Z,9.462992